Time;durP1;ratioP1;P1;durP2;ratioP2;P2;SDS_P1;SDS_P2;PMS_P1;PMS_P2;Temp;Humidity;BMP_temperature;BMP_pressure;BME280_temperature;BME280_humidity;BME280_pressure;Samples;Min_cycle;Max_cycle;Signal;HPM_P1;HPM_P2
2022/12/27 00:00:51;;;;;;;1.10;1.00;;;7.30;83.60;;;;;;20914665;28;20265;-71
2022/12/27 00:10:53;;;;;;;1.87;1.07;;;7.20;84.50;;;;;;20913747;28;20216;-71
2022/12/27 00:20:59;;;;;;;1.60;1.10;;;7.10;85.20;;;;;;20913675;28;20242;-69
2022/12/27 00:31:02;;;;;;;4.27;1.30;;;7.00;85.30;;;;;;20913451;28;20738;-71
2022/12/27 00:41:03;;;;;;;1.47;1.20;;;7.00;85.10;;;;;;20912243;28;20250;-69
2022/12/27 00:51:07;;;;;;;2.30;1.47;;;6.90;85.00;;;;;;20912276;28;20221;-69
2022/12/27 01:01:16;;;;;;;1.53;1.10;;;6.90;85.20;;;;;;20912113;28;20289;-69
2022/12/27 01:11:18;;;;;;;2.17;1.20;;;6.70;85.40;;;;;;20911562;28;20252;-72
2022/12/27 01:21:21;;;;;;;2.33;1.17;;;6.60;85.90;;;;;;20914789;28;20237;-73
2022/12/27 01:31:26;;;;;;;5.97;1.30;;;6.50;86.10;;;;;;20926953;28;20210;-72
2022/12/27 01:51:54;;;;;;;2.00;1.30;;;6.40;86.10;;;;;;20925007;28;20260;-73
2022/12/27 02:01:56;;;;;;;4.80;1.50;;;6.30;86.20;;;;;;20924473;28;20238;-73
2022/12/27 02:12:00;;;;;;;1.97;1.10;;;6.30;86.30;;;;;;20923459;28;20211;-73
2022/12/27 02:33:06;;;;;;;3.77;1.30;;;6.30;86.40;;;;;;20921755;28;20251;-69
2022/12/27 02:53:47;;;;;;;5.60;1.30;;;6.30;86.80;;;;;;20920487;28;20219;-70
2022/12/27 03:03:57;;;;;;;4.50;1.30;;;6.20;87.30;;;;;;20919678;28;20232;-70
2022/12/27 03:35:06;;;;;;;1.10;1.00;;;6.00;90.20;;;;;;20917349;28;20672;-71
2022/12/27 03:45:09;;;;;;;2.87;1.43;;;5.90;90.50;;;;;;20915305;28;20247;-72
2022/12/27 03:55:11;;;;;;;2.23;1.30;;;;;;;;;;20915365;28;20263;-69
2022/12/27 04:05:13;;;;;;;4.10;1.33;;;;;;;;;;20914979;28;20245;-71
2022/12/27 04:35:56;;;;;;;5.23;1.37;;;5.70;92.20;;;;;;20912965;28;20208;-70
2022/12/27 04:56:40;;;;;;;1.73;1.10;;;5.60;92.60;;;;;;20918333;28;20240;-69
2022/12/27 05:06:42;;;;;;;3.77;1.30;;;;;;;;;;20928442;28;20237;-72
2022/12/27 05:16:44;;;;;;;2.93;1.40;;;5.60;93.30;;;;;;20927964;28;20212;-72
2022/12/27 05:26:46;;;;;;;4.83;2.87;;;;;;;;;;20926940;28;20249;-72
2022/12/27 05:36:48;;;;;;;3.17;1.47;;;;;;;;;;20926182;28;20271;-72
2022/12/27 05:46:50;;;;;;;3.03;1.60;;;;;;;;;;20925804;28;20233;-72
2022/12/27 05:56:51;;;;;;;6.23;1.50;;;5.70;94.20;;;;;;20924819;28;20730;-71
2022/12/27 06:06:53;;;;;;;4.20;1.47;;;5.60;94.50;;;;;;20922649;28;20228;-69
2022/12/27 06:16:55;;;;;;;2.20;1.27;;;5.60;94.90;;;;;;20924601;28;20246;-72
2022/12/27 06:26:57;;;;;;;4.73;1.70;;;;;;;;;;20922516;28;20268;-69
2022/12/27 06:36:59;;;;;;;8.37;1.70;;;;;;;;;;20921680;28;20643;-69
2022/12/27 06:47:01;;;;;;;6.10;1.80;;;5.60;95.60;;;;;;20921169;28;20282;-71
2022/12/27 06:57:03;;;;;;;4.30;1.70;;;5.60;95.90;;;;;;20920001;28;20572;-71
2022/12/27 07:07:05;;;;;;;4.20;1.80;;;;;;;;;;20918938;28;20239;-68
2022/12/27 07:17:12;;;;;;;7.33;2.00;;;5.60;96.60;;;;;;20918557;28;20215;-72
2022/12/27 07:27:14;;;;;;;7.13;2.17;;;;;;;;;;20916243;28;20236;-71
2022/12/27 07:37:16;;;;;;;3.23;2.13;;;;;;;;;;20916251;28;20591;-72
2022/12/27 07:47:19;;;;;;;8.07;2.30;;;;;;;;;;20915602;28;20245;-72
2022/12/27 07:57:20;;;;;;;5.17;2.30;;;5.70;97.50;;;;;;20914873;28;20209;-72
2022/12/27 08:07:24;;;;;;;7.30;2.27;;;5.80;97.70;;;;;;20914303;28;20232;-72
2022/12/27 08:17:27;;;;;;;8.80;2.03;;;6.00;97.50;;;;;;20913741;28;20218;-72
2022/12/27 08:27:29;;;;;;;10.27;2.30;;;;;;;;;;20912691;28;20242;-72
2022/12/27 08:40:51;;;;;;;6.07;2.77;;;;;;;;;;21067574;28;20534;-71
2022/12/27 08:50:52;;;;;;;7.10;2.50;;;6.30;97.40;;;;;;21066844;28;20250;-71
2022/12/27 09:00:54;;;;;;;12.53;2.87;;;;;;;;;;21066016;28;20262;-72
2022/12/27 09:11:05;;;;;;;7.33;2.90;;;6.50;97.70;;;;;;21065000;28;20724;-71
2022/12/27 09:21:09;;;;;;;6.00;3.00;;;6.80;97.50;;;;;;21064587;28;20212;-72
2022/12/27 09:31:12;;;;;;;7.43;2.73;;;6.90;97.20;;;;;;21063907;28;20241;-71
2022/12/27 09:41:37;;;;;;;4.43;2.40;;;7.00;96.90;;;;;;21063234;28;20205;-71
2022/12/27 09:52:26;;;;;;;5.43;2.57;;;7.00;97.20;;;;;;21008117;28;20648;-71
2022/12/27 10:06:49;;;;;;;3.23;2.40;;;7.30;96.60;;;;;;21067766;28;20566;-72
2022/12/27 10:17:01;;;;;;;6.67;2.33;;;7.40;96.80;;;;;;21068219;28;20244;-70
2022/12/27 10:27:11;;;;;;;4.87;2.17;;;7.60;96.10;;;;;;21066059;28;20211;-71
2022/12/27 10:37:15;;;;;;;3.63;1.97;;;7.60;96.30;;;;;;21065440;28;20766;-71
2022/12/27 10:47:17;;;;;;;4.67;2.70;;;7.70;96.00;;;;;;21065715;28;20296;-70
2022/12/27 10:57:27;;;;;;;5.13;2.27;;;7.90;95.90;;;;;;21063374;28;20774;-68
2022/12/27 11:07:31;;;;;;;4.50;1.90;;;8.20;95.90;;;;;;21062826;28;20611;-69
2022/12/27 11:17:39;;;;;;;4.77;2.17;;;8.30;95.60;;;;;;21008401;28;20281;-68
2022/12/27 11:27:45;;;;;;;6.20;1.90;;;8.40;95.40;;;;;;21005688;28;20207;-70
2022/12/27 11:37:49;;;;;;;4.10;1.80;;;8.40;95.00;;;;;;21004496;28;20243;-68
2022/12/27 11:48:19;;;;;;;5.77;1.90;;;8.30;94.50;;;;;;21003380;28;20204;-70
2022/12/27 11:58:42;;;;;;;5.40;2.13;;;8.30;94.30;;;;;;21002723;28;20239;-68
2022/12/27 12:09:19;;;;;;;4.23;1.80;;;8.50;94.20;;;;;;21002151;28;20668;-72
2022/12/27 12:20:02;;;;;;;4.90;1.70;;;8.70;94.00;;;;;;21001457;28;20234;-70
2022/12/27 12:30:13;;;;;;;7.23;1.80;;;8.70;93.30;;;;;;20999566;28;20212;-72
2022/12/27 12:40:39;;;;;;;5.10;1.70;;;9.00;93.10;;;;;;20997664;28;20232;-72
2022/12/27 12:51:08;;;;;;;3.30;1.47;;;9.20;93.00;;;;;;20998703;28;20216;-72
2022/12/27 13:01:26;;;;;;;6.43;1.77;;;9.00;92.30;;;;;;20998555;28;20235;-68
2022/12/27 13:12:01;;;;;;;5.77;2.10;;;9.00;92.20;;;;;;20998050;28;20540;-72
2022/12/27 13:22:06;;;;;;;9.17;2.00;;;8.90;91.70;;;;;;20994574;28;20238;-70
2022/12/27 13:32:40;;;;;;;7.50;1.93;;;9.00;92.00;;;;;;20996490;28;20226;-71
2022/12/27 13:43:04;;;;;;;3.80;1.73;;;9.00;91.60;;;;;;20985547;28;20274;-71
2022/12/27 13:53:28;;;;;;;8.37;2.27;;;9.00;91.90;;;;;;20994435;28;20231;-71
2022/12/27 14:03:47;;;;;;;6.47;2.30;;;9.00;91.80;;;;;;21014330;28;20450;-74
2022/12/27 14:13:50;;;;;;;4.83;1.80;;;9.50;91.60;;;;;;21045311;28;20219;-71
2022/12/27 14:24:10;;;;;;;5.43;1.83;;;8.90;91.00;;;;;;21061672;28;20685;-69
2022/12/27 14:34:48;;;;;;;6.93;2.23;;;8.60;91.10;;;;;;21065827;28;20203;-71
2022/12/27 14:44:58;;;;;;;4.13;1.93;;;;;;;;;;20995878;28;20232;-72
2022/12/27 14:55:37;;;;;;;7.00;2.70;;;8.60;91.50;;;;;;21008065;28;20204;-71
2022/12/27 15:05:50;;;;;;;5.03;2.27;;;8.60;91.80;;;;;;21007542;28;20243;-76
2022/12/27 15:16:13;;;;;;;5.07;2.17;;;8.30;92.00;;;;;;21080665;28;20198;-74
2022/12/27 15:26:19;;;;;;;6.93;2.50;;;8.40;92.30;;;;;;21089641;28;20283;-73
2022/12/27 15:36:39;;;;;;;4.83;2.93;;;8.10;92.60;;;;;;21088172;28;20202;-73
2022/12/27 15:46:59;;;;;;;6.20;2.70;;;7.80;92.70;;;;;;21087976;28;20238;-70
2022/12/27 15:57:30;;;;;;;4.37;2.40;;;7.70;92.90;;;;;;21087075;28;20234;-70
2022/12/27 16:07:35;;;;;;;4.13;2.30;;;7.50;93.10;;;;;;21081815;28;20675;-70
2022/12/27 16:17:55;;;;;;;5.03;1.90;;;7.40;93.30;;;;;;21001655;28;20261;-70
2022/12/27 16:28:14;;;;;;;6.00;2.50;;;7.30;93.50;;;;;;21000625;28;20670;-72
2022/12/27 16:38:21;;;;;;;5.17;2.00;;;7.20;93.60;;;;;;21000005;28;20233;-75
2022/12/27 16:48:49;;;;;;;3.73;2.13;;;7.10;93.70;;;;;;20999351;28;20285;-72
2022/12/27 16:58:51;;;;;;;4.60;2.10;;;7.00;93.90;;;;;;20999813;28;20235;-69
2022/12/27 17:09:08;;;;;;;9.43;3.13;;;6.90;94.10;;;;;;21014124;28;20259;-66
2022/12/27 17:19:18;;;;;;;9.13;3.00;;;6.80;94.40;;;;;;21080299;28;20597;-72
2022/12/27 17:29:56;;;;;;;8.73;2.53;;;6.80;94.70;;;;;;21079964;28;20201;-71
2022/12/27 17:40:19;;;;;;;9.53;2.57;;;6.90;94.80;;;;;;21079250;28;20276;-71
2022/12/27 17:50:25;;;;;;;10.63;3.00;;;6.80;95.00;;;;;;21078754;28;20609;-72
2022/12/27 18:00:30;;;;;;;8.50;3.23;;;6.70;95.20;;;;;;21078314;28;20334;-71
2022/12/27 18:10:35;;;;;;;6.27;3.33;;;6.70;95.40;;;;;;21048268;28;20197;-71
2022/12/27 18:20:39;;;;;;;14.73;3.80;;;6.70;95.60;;;;;;20997859;28;20699;-67
2022/12/27 18:30:51;;;;;;;8.17;3.30;;;6.70;95.60;;;;;;21010678;28;20658;-70
2022/12/27 18:41:02;;;;;;;7.83;3.37;;;6.60;95.70;;;;;;21009391;28;20234;-71
2022/12/27 18:51:04;;;;;;;10.27;3.50;;;;;;;;;;21008360;28;20211;-71
2022/12/27 19:01:18;;;;;;;9.77;4.70;;;6.60;95.90;;;;;;21007890;28;20721;-70
2022/12/27 19:11:27;;;;;;;9.40;5.10;;;6.40;95.80;;;;;;21043200;28;20212;-70
2022/12/27 19:21:38;;;;;;;18.50;8.83;;;6.30;95.80;;;;;;21042096;28;20699;-70
2022/12/27 19:31:43;;;;;;;15.10;8.63;;;6.00;95.70;;;;;;21003588;28;20666;-70
2022/12/27 19:41:46;;;;;;;17.10;9.87;;;5.90;95.90;;;;;;21004036;28;20339;-72
2022/12/27 19:51:49;;;;;;;24.00;12.40;;;5.60;95.80;;;;;;21003709;28;20487;-73
2022/12/27 20:01:51;;;;;;;29.57;13.57;;;5.50;96.00;;;;;;21003034;28;20244;-73
2022/12/27 20:11:53;;;;;;;25.23;12.97;;;5.20;96.00;;;;;;21041993;28;20209;-71
2022/12/27 20:21:55;;;;;;;21.53;12.13;;;5.10;96.10;;;;;;21083145;28;20631;-71
2022/12/27 20:31:57;;;;;;;19.57;10.13;;;5.00;96.40;;;;;;21082988;28;20248;-73
2022/12/27 20:42:00;;;;;;;13.83;8.40;;;;;;;;;;21095611;28;20237;-71
2022/12/27 20:52:03;;;;;;;15.50;7.90;;;4.90;96.60;;;;;;21085212;28;20202;-73
2022/12/27 21:02:04;;;;;;;14.17;8.57;;;4.80;96.40;;;;;;21080416;28;20604;-73
2022/12/27 21:12:06;;;;;;;20.97;11.33;;;4.70;96.50;;;;;;21035490;28;20651;-72
2022/12/27 21:22:08;;;;;;;20.97;11.07;;;4.60;96.70;;;;;;20994858;28;20302;-73
2022/12/27 21:32:10;;;;;;;20.93;10.67;;;4.40;96.70;;;;;;20994473;28;20207;-72
2022/12/27 21:42:11;;;;;;;18.90;10.20;;;4.30;96.80;;;;;;20993248;28;20231;-71
2022/12/27 21:52:13;;;;;;;18.20;10.47;;;4.30;96.90;;;;;;20992965;28;20566;-71
2022/12/27 22:02:17;;;;;;;20.17;10.13;;;4.20;97.00;;;;;;20993056;28;20242;-72
2022/12/27 22:12:19;;;;;;;20.03;9.87;;;;;;;;;;20992751;28;20203;-72
2022/12/27 22:22:21;;;;;;;16.83;9.20;;;4.00;97.00;;;;;;20992152;28;20231;-72
2022/12/27 22:32:22;;;;;;;18.53;9.60;;;4.00;97.10;;;;;;20991980;28;20212;-72
2022/12/27 22:42:24;;;;;;;18.07;9.10;;;3.90;97.10;;;;;;20990382;28;20235;-72
2022/12/27 22:52:26;;;;;;;16.33;9.20;;;3.80;97.20;;;;;;20990971;28;20207;-71
2022/12/27 23:02:27;;;;;;;17.73;8.43;;;3.60;97.10;;;;;;20990595;28;20239;-71
2022/12/27 23:12:29;;;;;;;18.03;8.80;;;3.60;97.40;;;;;;21003132;28;20298;-72
2022/12/27 23:22:31;;;;;;;15.37;8.90;;;3.60;97.30;;;;;;21004805;28;20235;-72
2022/12/27 23:32:33;;;;;;;19.27;11.23;;;3.60;97.40;;;;;;21006229;28;20211;-73
2022/12/27 23:42:34;;;;;;;17.37;9.50;;;3.60;97.40;;;;;;21005651;28;20292;-73
2022/12/27 23:52:36;;;;;;;16.23;8.93;;;3.50;97.40;;;;;;21004598;28;20199;-72
